METAR AND TAF INFORMATION
METAR FOR KSJX
ADDS - METARS form results

(0759 UTC 19 December 2018)
Data provider http://aviationweather.gov/metar/data/
 
METAR text: KSJX 190755Z AUTO 22012G17KT 10SM CLR 04/01 A2984 RMK AO2 T00360010
Conditions at: KSJX (BEAVER ISLAND , MI, US) observed 0755 UTC 19 December 2018
Temperature: 3.6°C (38°F)
Dewpoint: 1.0°C (34°F) [RH = 83%]
Pressure (altimeter): 29.84 inches Hg (1010.6 mb)
Winds: from the SW (220 degrees) at 14 MPH (12 knots; 6.2 m/s)
gusting to 20 MPH (17 knots; 8.7 m/s)
Visibility: 10 or more miles (16+ km)
Ceiling: at least 12,000 feet AGL
Clouds: sky clear below 12,000 feet AGL
Weather: automated observation with no human augmentation;
there may or may not be significant weather present at this time

METAR text: KSJX 190735Z AUTO 22013G19KT 10SM CLR 04/01 A2985 RMK AO2 T00360010
Conditions at: KSJX (BEAVER ISLAND , MI, US) observed 0735 UTC 19 December 2018
Temperature: 3.6°C (38°F)
Dewpoint: 1.0°C (34°F) [RH = 83%]
Pressure (altimeter): 29.85 inches Hg (1010.9 mb)
Winds: from the SW (220 degrees) at 15 MPH (13 knots; 6.7 m/s)
gusting to 22 MPH (19 knots; 9.8 m/s)
Visibility: 10 or more miles (16+ km)
Ceiling: at least 12,000 feet AGL
Clouds: sky clear below 12,000 feet AGL
Weather: automated observation with no human augmentation;
there may or may not be significant weather present at this time

METAR text: KSJX 190715Z AUTO 22012G20KT 10SM CLR 04/01 A2985 RMK AO2 T00370011
Conditions at: KSJX (BEAVER ISLAND , MI, US) observed 0715 UTC 19 December 2018
Temperature: 3.7°C (39°F)
Dewpoint: 1.1°C (34°F) [RH = 83%]
Pressure (altimeter): 29.85 inches Hg (1010.9 mb)
Winds: from the SW (220 degrees) at 14 MPH (12 knots; 6.2 m/s)
gusting to 23 MPH (20 knots; 10.3 m/s)
Visibility: 10 or more miles (16+ km)
Ceiling: at least 12,000 feet AGL
Clouds: sky clear below 12,000 feet AGL
Weather: automated observation with no human augmentation;
there may or may not be significant weather present at this time

 AIRPORT MAP

Esri Leaflet Quickstart
 RUNWAY INFORMATION
Runway 05 Runway length 2130 ft Runway width 120 ft
Runway elevation 0 ft Runway displaced threshold 0 ft Runway heading 42
Runway 23 Runway length 2130 ft Runway width 120 ft
Runway elevation 0 ft Runway displaced threshold 0 ft Runway heading 222
Runway 09 Runway length 4300 ft Runway width 75 ft
Runway elevation 669 ft Runway displaced threshold 0 ft Runway heading 90
Runway 27 Runway length 4300 ft Runway width 75 ft
Runway elevation 667 ft Runway displaced threshold 0 ft Runway heading 270
Runway 14 Runway length 3300 ft Runway width 120 ft
Runway elevation 669 ft Runway displaced threshold 0 ft Runway heading 132
Runway 32 Runway length 3300 ft Runway width 120 ft
Runway elevation 669 ft Runway displaced threshold 600 ft Runway heading 312

 AIRPORT FREQUENCIES
Type AWOS Name AWOS 3 Frequency 118.075 MHZ
Type CNTR Name MINNEAPOLI Frequency 134.6 MHZ
Type UNIC Name CTAF/UNICO Frequency 122.8 MHZ

 AIRPORT NEAR NAVIGATION AIDS



Powered by Virtual Airlines Manager [v2.6.2]